createdAt,value
2018-12-02T00:13:07.490Z,2.6
2018-12-02T00:28:13.338Z,2.6
2018-12-02T00:43:30.621Z,2.5
2018-12-02T00:58:42.226Z,2.6
2018-12-02T01:13:53.555Z,2.6
2018-12-02T01:29:05.853Z,2.8
2018-12-02T01:44:17.116Z,3
2018-12-02T01:59:28.510Z,3.1
2018-12-02T02:14:40.606Z,3.3
2018-12-02T02:29:52.363Z,3.4
2018-12-02T02:44:59.929Z,3.4
2018-12-02T03:00:17.298Z,3.5
2018-12-02T03:15:27.808Z,3.7
2018-12-02T03:30:39.752Z,3.9
2018-12-02T03:45:51.968Z,4
2018-12-02T04:01:03.700Z,4
2018-12-02T04:16:15.977Z,4.1
2018-12-02T04:31:27.788Z,4.1
2018-12-02T04:46:39.855Z,4.2
2018-12-02T05:01:49.133Z,4.1
2018-12-02T05:17:03.995Z,4.2
2018-12-02T05:32:16.035Z,4.1
2018-12-02T05:47:28.272Z,4.1
2018-12-02T06:02:40.370Z,4.1
2018-12-02T06:17:52.174Z,4.2
2018-12-02T06:33:04.644Z,4.3
2018-12-02T06:48:17.034Z,4.3
2018-12-02T07:03:28.434Z,4.4
2018-12-02T07:18:38.155Z,4.2
2018-12-02T07:33:52.839Z,4.1
2018-12-02T07:49:04.775Z,3.8
2018-12-02T08:04:16.597Z,3.7
2018-12-02T08:19:19.901Z,3.7
2018-12-02T08:34:40.724Z,3.7
2018-12-02T08:49:52.260Z,3.8
2018-12-02T09:05:04.137Z,3.9
2018-12-02T09:20:16.142Z,4
2018-12-02T09:35:26.766Z,4
2018-12-02T09:50:40.488Z,4.2
2018-12-02T10:05:52.329Z,4.2
2018-12-02T10:21:04.461Z,4.2
2018-12-02T10:36:08.805Z,4.3
2018-12-02T10:51:28.826Z,4.5
2018-12-02T11:06:41.435Z,4.8
2018-12-02T11:21:53.676Z,4.8
2018-12-02T11:37:05.625Z,4.7
2018-12-02T11:52:16.691Z,4.5
2018-12-02T12:07:29.972Z,4.3
2018-12-02T12:22:42.134Z,4.2
2018-12-02T12:37:54.256Z,4.1
2018-12-02T12:52:58.913Z,4.1
2018-12-02T13:08:18.454Z,4.5
2018-12-02T13:23:31.035Z,4.6
2018-12-02T13:38:43.423Z,4.7
2018-12-02T13:53:55.750Z,4.9
2018-12-02T14:09:06.754Z,4.9
2018-12-02T14:24:20.447Z,4.9
2018-12-02T14:39:32.856Z,4.8
2018-12-02T14:54:45.511Z,4.8
2018-12-02T15:09:49.399Z,4.7
2018-12-02T15:25:09.657Z,4.7
2018-12-02T15:40:22.147Z,4.7
2018-12-02T15:55:34.217Z,4.6
2018-12-02T16:10:46.356Z,4.6
2018-12-02T16:25:57.753Z,4.6
2018-12-02T16:41:10.898Z,4.6
2018-12-02T16:56:23.174Z,4.7
2018-12-02T17:11:35.523Z,4.7
2018-12-02T17:26:40.602Z,4.7
2018-12-02T17:41:59.916Z,4.8
2018-12-02T17:57:12.451Z,4.8
2018-12-02T18:12:25.049Z,5
2018-12-02T18:27:37.159Z,5
2018-12-02T18:42:49.249Z,5.1
2018-12-02T18:58:01.827Z,5.3
2018-12-02T19:13:14.959Z,6.4
2018-12-02T19:28:27.872Z,6.1
2018-12-02T19:43:34.191Z,5.9
2018-12-02T19:58:52.958Z,5.8
2018-12-02T20:14:05.678Z,5.8
2018-12-02T20:29:18.270Z,6
2018-12-02T20:44:31.383Z,6.4
2018-12-02T20:59:44.383Z,6.1
2018-12-02T21:14:56.828Z,5.8
2018-12-02T21:30:10.025Z,5.7
2018-12-02T21:45:22.007Z,5.5
2018-12-02T22:00:28.019Z,5.3
2018-12-02T22:15:47.194Z,5.4
2018-12-02T22:30:59.447Z,5.4
2018-12-02T22:46:11.917Z,5.4
2018-12-02T23:01:24.383Z,5.2
2018-12-02T23:16:38.581Z,5.1
2018-12-02T23:31:49.285Z,5
2018-12-02T23:47:01.488Z,5.1
